createdAt,value
2023-04-10T00:02:01.166Z,5.95
2023-04-10T00:04:03.815Z,5.43
2023-04-10T00:06:07.599Z,5.47
2023-04-10T00:08:09.413Z,6.97
2023-04-10T00:10:11.280Z,6.40
2023-04-10T00:12:13.033Z,6.32
2023-04-10T00:14:14.656Z,7.13
2023-04-10T00:16:16.579Z,7.80
2023-04-10T00:18:18.272Z,7.22
2023-04-10T00:20:19.894Z,5.47
2023-04-10T00:22:21.618Z,6.15
2023-04-10T00:24:23.299Z,5.80
2023-04-10T00:26:26.337Z,4.63
2023-04-10T00:28:28.063Z,4.25
2023-04-10T00:30:29.733Z,5.10
2023-04-10T00:32:31.375Z,3.83
2023-04-10T00:35:29.412Z,3.90
2023-04-10T00:37:31.358Z,4.63
2023-04-10T00:39:34.223Z,7.30
2023-04-10T00:41:36.085Z,7.60
2023-04-10T00:43:37.772Z,5.70
2023-04-10T00:45:39.769Z,4.97
2023-04-10T00:47:41.569Z,4.60
2023-04-10T00:49:44.421Z,5.90
2023-04-10T00:51:47.064Z,5.72
2023-04-10T00:53:52.587Z,5.50
2023-04-10T00:55:55.129Z,5.32
2023-04-10T00:57:56.956Z,6.97
2023-04-10T00:59:58.616Z,5.65
2023-04-10T01:05:16.232Z,6.07
2023-04-10T01:07:42.465Z,5.75
2023-04-10T01:09:57.734Z,5.18
2023-04-10T01:12:21.644Z,4.95
2023-04-10T01:14:40.845Z,5.47
2023-04-10T01:16:49.796Z,6.45
2023-04-10T01:18:57.720Z,5.55
2023-04-10T01:20:59.984Z,6.55
2023-04-10T01:23:20.767Z,6.10
2023-04-10T01:26:00.462Z,5.28
2023-04-10T01:28:07.380Z,5.22
2023-04-10T01:30:12.817Z,5.88
2023-04-10T01:32:18.169Z,5.78
2023-04-10T01:34:22.579Z,5.38
2023-04-10T01:36:29.570Z,5.07
2023-04-10T01:38:31.729Z,4.78
2023-04-10T01:40:34.722Z,5.25
2023-04-10T01:42:43.279Z,5.95
2023-04-10T01:44:50.726Z,5.55
2023-04-10T01:46:53.102Z,5.50
2023-04-10T01:48:55.222Z,5.13
2023-04-10T01:50:57.089Z,5.25
2023-04-10T01:52:59.691Z,6.03
2023-04-10T01:55:02.325Z,5.57
2023-04-10T01:57:04.517Z,5.15
2023-04-10T01:59:06.674Z,5.32
2023-04-10T02:01:10.301Z,6.30
2023-04-10T02:03:18.461Z,5.07
2023-04-10T02:05:20.776Z,5.57
2023-04-10T02:07:36.317Z,5.10
2023-04-10T02:09:51.049Z,4.60
2023-04-10T02:12:00.150Z,5.85
2023-04-10T02:14:04.655Z,5.45
2023-04-10T02:16:08.987Z,5.10
2023-04-10T02:18:11.215Z,5.03
2023-04-10T02:20:13.013Z,5.28
2023-04-10T02:22:16.180Z,5.18
2023-04-10T02:24:19.314Z,5.00
2023-04-10T02:26:21.077Z,5.70
2023-04-10T02:28:22.807Z,5.60
2023-04-10T02:30:24.965Z,5.57
2023-04-10T02:32:27.360Z,5.00
2023-04-10T02:34:29.161Z,4.85
2023-04-10T02:36:30.748Z,4.60
2023-04-10T02:38:54.283Z,4.90
2023-04-10T02:40:55.963Z,4.40
2023-04-10T02:42:57.642Z,5.47
2023-04-10T02:44:59.365Z,5.43
2023-04-10T02:47:01.186Z,7.55
2023-04-10T02:49:02.929Z,10.27
2023-04-10T02:51:04.940Z,9.73
2023-04-10T02:53:06.602Z,8.43
2023-04-10T02:55:08.521Z,9.40
2023-04-10T02:57:10.451Z,7.60
2023-04-10T02:59:13.422Z,7.22
2023-04-10T03:01:15.060Z,7.07
2023-04-10T03:03:18.825Z,7.55
2023-04-10T03:05:20.677Z,7.88
2023-04-10T03:07:22.309Z,6.68
2023-04-10T03:09:23.963Z,7.53
2023-04-10T03:11:26.076Z,8.00
2023-04-10T03:13:27.761Z,6.82
2023-04-10T03:15:29.540Z,7.32
2023-04-10T03:17:31.196Z,7.65
2023-04-10T03:19:32.875Z,6.95
2023-04-10T03:21:34.601Z,6.80
2023-04-10T03:23:36.874Z,6.63
2023-04-10T03:25:38.482Z,7.22
2023-04-10T03:27:40.269Z,5.68
2023-04-10T03:29:41.932Z,5.57
2023-04-10T03:31:43.636Z,4.35
2023-04-10T03:33:45.522Z,4.97
2023-04-10T03:35:47.609Z,5.53
2023-04-10T03:37:49.478Z,5.30
2023-04-10T03:39:51.229Z,5.28
2023-04-10T03:41:52.830Z,5.45
2023-04-10T03:43:54.729Z,5.22
2023-04-10T03:45:56.519Z,5.25
2023-04-10T03:47:59.211Z,5.75
2023-04-10T03:50:00.950Z,5.63
2023-04-10T03:52:02.624Z,5.82
2023-04-10T03:54:04.307Z,5.50
2023-04-10T03:56:06.532Z,5.68
2023-04-10T03:58:08.315Z,5.18
2023-04-10T04:00:11.009Z,5.68
2023-04-10T04:02:12.719Z,6.05
2023-04-10T04:04:14.530Z,6.00
2023-04-10T04:06:16.316Z,5.28
2023-04-10T04:08:18.184Z,5.75
2023-04-10T04:10:19.808Z,5.60
2023-04-10T04:12:21.517Z,5.00
2023-04-10T04:14:23.670Z,4.82
2023-04-10T04:16:25.475Z,6.13
2023-04-10T04:18:29.935Z,6.78
2023-04-10T04:20:31.706Z,4.97
2023-04-10T04:22:33.406Z,5.40
2023-04-10T04:24:35.089Z,5.55
2023-04-10T04:26:36.685Z,5.82
2023-04-10T04:28:38.325Z,6.60
2023-04-10T04:30:39.949Z,6.07
2023-04-10T04:32:41.666Z,5.97
2023-04-10T04:34:43.397Z,5.60
2023-04-10T04:36:45.062Z,5.97
2023-04-10T04:38:46.793Z,6.63
2023-04-10T04:40:48.417Z,6.60
2023-04-10T04:42:50.043Z,7.25
2023-04-10T04:44:51.826Z,4.70
2023-04-10T04:46:53.473Z,5.88
2023-04-10T04:48:55.311Z,5.63
2023-04-10T04:50:56.980Z,6.22
2023-04-10T04:53:00.582Z,6.28
2023-04-10T04:55:02.245Z,5.32
2023-04-10T04:57:04.337Z,6.20
2023-04-10T04:59:06.092Z,6.57
2023-04-10T05:01:08.520Z,6.65
2023-04-10T05:03:10.609Z,6.28
2023-04-10T05:05:12.391Z,5.90
2023-04-10T05:07:14.261Z,6.15
2023-04-10T05:09:15.942Z,5.07
2023-04-10T05:11:17.706Z,5.53
2023-04-10T05:13:19.421Z,6.22
2023-04-10T05:15:21.095Z,6.35
2023-04-10T05:17:22.838Z,6.72
2023-04-10T05:19:24.614Z,5.93
2023-04-10T05:21:27.510Z,6.30
2023-04-10T05:23:29.198Z,6.78
2023-04-10T05:25:30.854Z,6.22
2023-04-10T05:27:32.566Z,6.63
2023-04-10T05:29:34.725Z,6.72
2023-04-10T05:31:36.814Z,6.82
2023-04-10T05:33:38.557Z,6.38
2023-04-10T05:35:40.443Z,6.30
2023-04-10T05:37:42.155Z,5.28
2023-04-10T05:39:43.892Z,5.93
2023-04-10T05:41:45.524Z,6.95
2023-04-10T05:43:47.205Z,6.82
2023-04-10T05:45:49.097Z,6.38
2023-04-10T05:47:50.993Z,7.03
2023-04-10T05:49:52.736Z,6.05
2023-04-10T05:51:54.388Z,6.88
2023-04-10T05:53:56.395Z,6.82
2023-04-10T05:55:59.582Z,6.75
2023-04-10T05:58:01.325Z,7.68
2023-04-10T06:00:03.244Z,6.97
2023-04-10T06:02:05.084Z,7.72
2023-04-10T06:04:06.911Z,7.18
2023-04-10T06:06:08.801Z,8.27
2023-04-10T06:08:11.247Z,7.95
2023-04-10T06:10:12.962Z,7.95
2023-04-10T06:12:14.676Z,8.80
2023-04-10T06:14:18.070Z,6.72
2023-04-10T06:16:19.857Z,8.35
2023-04-10T06:18:21.557Z,7.90
2023-04-10T06:20:23.785Z,8.75
2023-04-10T06:22:25.648Z,8.05
2023-04-10T06:24:27.322Z,7.32
2023-04-10T06:26:29.072Z,7.45
2023-04-10T06:28:30.911Z,7.90
2023-04-10T06:30:34.719Z,8.48
2023-04-10T06:32:36.396Z,7.00
2023-04-10T06:34:38.165Z,7.93
2023-04-10T06:36:39.878Z,8.55
2023-04-10T06:38:41.566Z,7.85
2023-04-10T06:40:43.245Z,7.55
2023-04-10T06:42:44.927Z,7.72
2023-04-10T06:44:46.711Z,7.95
2023-04-10T06:46:48.380Z,7.90
2023-04-10T06:48:50.181Z,7.55
2023-04-10T06:50:51.911Z,7.45
2023-04-10T06:52:55.965Z,7.10
2023-04-10T06:54:57.817Z,15.95
2023-04-10T06:57:03.192Z,16.27
2023-04-10T06:59:05.175Z,8.23
2023-04-10T07:01:07.207Z,9.43
2023-04-10T07:03:08.987Z,9.55
2023-04-10T07:05:10.647Z,10.57
2023-04-10T07:07:13.470Z,8.98
2023-04-10T07:09:15.235Z,8.13
2023-04-10T07:11:17.235Z,6.60
2023-04-10T07:13:18.870Z,5.90
2023-04-10T07:15:20.828Z,6.38
2023-04-10T07:17:22.531Z,5.50
2023-04-10T07:19:24.307Z,4.72
2023-04-10T07:21:27.271Z,3.88
2023-04-10T07:23:29.035Z,4.03
2023-04-10T07:25:30.689Z,4.43
2023-04-10T07:27:32.272Z,4.57
2023-04-10T07:29:34.127Z,3.75
2023-04-10T07:31:36.062Z,3.75
2023-04-10T07:33:38.710Z,5.18
2023-04-10T07:35:40.412Z,4.25
2023-04-10T07:37:44.036Z,4.47
2023-04-10T07:39:45.713Z,3.13
2023-04-10T07:41:47.356Z,3.30
2023-04-10T07:43:49.021Z,3.00
2023-04-10T07:45:50.849Z,3.38
2023-04-10T07:47:52.515Z,3.58
2023-04-10T07:49:54.368Z,4.00
2023-04-10T07:51:56.017Z,3.15
2023-04-10T07:53:57.650Z,3.08
2023-04-10T07:55:59.296Z,2.85
2023-04-10T07:58:01.072Z,3.13
2023-04-10T08:00:03.443Z,2.95
2023-04-10T08:02:05.196Z,3.35
2023-04-10T08:04:07.026Z,2.20
2023-04-10T08:06:09.745Z,2.60
2023-04-10T08:08:11.462Z,2.92
2023-04-10T08:10:13.304Z,2.60
2023-04-10T08:12:14.972Z,3.83
2023-04-10T08:14:18.093Z,2.42
2023-04-10T08:16:24.009Z,2.65
2023-04-10T08:18:26.097Z,2.25
2023-04-10T08:20:28.413Z,3.17
2023-04-10T08:22:30.112Z,1.58
2023-04-10T08:24:31.741Z,2.20
2023-04-10T08:26:33.356Z,2.30
2023-04-10T08:28:35.019Z,2.85
2023-04-10T08:30:36.695Z,2.38
2023-04-10T08:32:39.231Z,2.55
2023-04-10T08:34:40.912Z,2.50
2023-04-10T08:36:42.594Z,2.47
2023-04-10T08:38:44.854Z,2.47
2023-04-10T08:40:46.469Z,1.60
2023-04-10T08:42:48.099Z,2.30
2023-04-10T08:44:50.464Z,2.40
2023-04-10T08:46:52.677Z,1.92
2023-04-10T08:49:06.361Z,1.65
2023-04-10T08:51:15.598Z,2.20
2023-04-10T08:53:24.276Z,2.22
2023-04-10T08:55:26.268Z,2.35
2023-04-10T08:57:28.327Z,1.90
2023-04-10T08:59:31.066Z,2.20
2023-04-10T09:01:34.936Z,1.80
2023-04-10T09:03:37.724Z,1.90
2023-04-10T09:05:39.547Z,1.50
2023-04-10T09:07:41.574Z,1.65
2023-04-10T09:09:43.637Z,1.60
2023-04-10T09:12:00.849Z,1.73
2023-04-10T09:14:03.016Z,1.73
2023-04-10T09:16:05.522Z,1.75
2023-04-10T09:18:07.285Z,1.55
2023-04-10T09:20:22.088Z,2.08
2023-04-10T09:22:31.546Z,1.67
2023-04-10T09:24:38.448Z,2.08
2023-04-10T09:26:40.261Z,1.42
2023-04-10T09:29:00.317Z,1.25
2023-04-10T09:31:02.004Z,0.90
2023-04-10T09:33:04.425Z,0.90
2023-04-10T09:35:07.338Z,1.30
2023-04-10T09:37:09.420Z,1.02
2023-04-10T09:39:12.330Z,1.23
2023-04-10T09:41:14.115Z,1.30
2023-04-10T09:43:26.650Z,1.10
2023-04-10T09:45:47.140Z,1.23
2023-04-10T09:48:08.476Z,1.00
2023-04-10T09:50:10.296Z,1.10
2023-04-10T09:52:19.184Z,1.42
2023-04-10T09:54:36.055Z,1.30
2023-04-10T09:56:40.234Z,0.90
2023-04-10T09:58:41.906Z,1.00
2023-04-10T10:00:49.162Z,1.13
2023-04-10T10:02:51.735Z,0.95
2023-04-10T10:05:00.832Z,1.10
2023-04-10T10:07:02.712Z,1.02
2023-04-10T10:09:05.358Z,1.08
2023-04-10T10:11:10.207Z,1.08
2023-04-10T10:13:17.913Z,1.17
2023-04-10T10:15:41.488Z,1.08
2023-04-10T10:18:18.481Z,1.08
2023-04-10T10:20:22.476Z,1.20
2023-04-10T10:22:26.043Z,1.05
2023-04-10T10:24:28.379Z,0.90
2023-04-10T10:26:30.806Z,1.30
2023-04-10T10:28:34.773Z,1.35
2023-04-10T10:30:37.860Z,1.02
2023-04-10T10:32:40.497Z,1.00
2023-04-10T10:34:42.426Z,1.00
2023-04-10T10:36:44.113Z,1.20
2023-04-10T10:39:04.418Z,1.50
2023-04-10T10:41:23.896Z,1.50
2023-04-10T10:44:27.457Z,1.33
2023-04-10T10:46:50.720Z,1.10
2023-04-10T10:48:59.369Z,1.35
2023-04-10T10:51:02.855Z,1.60
2023-04-10T10:53:04.645Z,1.45
2023-04-10T10:55:39.092Z,1.10
2023-04-10T10:57:47.999Z,1.27
2023-04-10T10:59:49.700Z,1.35
2023-04-10T11:02:19.486Z,1.30
2023-04-10T11:04:43.970Z,1.58
2023-04-10T11:06:50.569Z,1.88
2023-04-10T11:08:53.768Z,1.42
2023-04-10T11:11:02.773Z,1.20
2023-04-10T11:13:18.170Z,1.05
2023-04-10T11:15:23.300Z,1.00
2023-04-10T11:17:55.708Z,0.85
2023-04-10T11:20:01.849Z,1.02
2023-04-10T11:22:05.779Z,1.10
2023-04-10T11:24:07.898Z,1.17
2023-04-10T11:26:10.876Z,1.17
2023-04-10T11:28:32.928Z,1.10
2023-04-10T11:30:35.853Z,1.10
2023-04-10T11:32:43.926Z,0.90
2023-04-10T11:34:45.949Z,1.00
2023-04-10T11:36:50.724Z,0.82
2023-04-10T11:38:58.893Z,1.02
2023-04-10T11:41:04.036Z,0.90
2023-04-10T11:43:15.151Z,0.80
2023-04-10T11:45:27.154Z,1.05
2023-04-10T11:47:28.831Z,1.10
2023-04-10T11:49:33.053Z,0.98
2023-04-10T11:51:34.713Z,0.90
2023-04-10T11:53:36.481Z,0.82
2023-04-10T11:55:41.260Z,0.88
2023-04-10T11:57:45.002Z,0.77
2023-04-10T11:59:51.213Z,0.80
2023-04-10T12:01:54.419Z,1.10
2023-04-10T12:03:56.826Z,0.60
2023-04-10T12:05:58.755Z,0.70
2023-04-10T12:08:00.545Z,0.85
2023-04-10T12:10:02.200Z,0.80
2023-04-10T12:12:06.015Z,0.65
2023-04-10T12:14:07.997Z,0.80
2023-04-10T12:16:10.928Z,0.75
2023-04-10T12:18:12.774Z,0.70
2023-04-10T12:20:16.570Z,0.88
2023-04-10T12:22:18.584Z,0.75
2023-04-10T12:24:46.763Z,0.75
2023-04-10T12:26:51.454Z,0.75
2023-04-10T12:28:57.878Z,0.90
2023-04-10T12:31:00.101Z,0.90
2023-04-10T12:33:05.953Z,0.73
2023-04-10T12:35:08.280Z,1.00
2023-04-10T12:37:10.106Z,0.85
2023-04-10T12:39:23.280Z,0.80
2023-04-10T12:41:26.836Z,0.88
2023-04-10T12:43:36.271Z,0.82
2023-04-10T12:45:45.104Z,0.90
2023-04-10T12:47:48.532Z,0.80
2023-04-10T12:50:08.857Z,0.90
2023-04-10T12:52:10.683Z,0.80
2023-04-10T12:54:25.868Z,1.00
2023-04-10T12:56:27.479Z,0.98
2023-04-10T12:58:31.220Z,0.80
2023-04-10T13:00:32.888Z,0.77
2023-04-10T13:02:34.627Z,0.95
2023-04-10T13:04:36.893Z,1.05
2023-04-10T13:06:45.999Z,0.90
2023-04-10T13:08:48.727Z,0.90
2023-04-10T13:10:50.527Z,0.68
2023-04-10T13:12:52.141Z,1.02
2023-04-10T13:14:54.615Z,0.95
2023-04-10T13:16:56.219Z,0.85
2023-04-10T13:18:57.919Z,1.27
2023-04-10T13:20:59.539Z,0.90
2023-04-10T13:23:02.896Z,1.10
2023-04-10T13:25:05.316Z,1.15
2023-04-10T13:27:06.999Z,1.13
2023-04-10T13:29:08.932Z,1.00
2023-04-10T13:31:10.898Z,1.10
2023-04-10T13:33:12.638Z,0.90
2023-04-10T13:35:14.318Z,0.75
2023-04-10T13:37:16.085Z,0.90
2023-04-10T13:39:18.752Z,0.90
2023-04-10T13:41:20.722Z,0.68
2023-04-10T13:43:22.475Z,1.10
2023-04-10T13:45:24.263Z,1.00
2023-04-10T13:47:25.989Z,1.13
2023-04-10T13:49:30.449Z,0.98
2023-04-10T13:51:32.395Z,0.90
2023-04-10T13:53:34.357Z,0.90
2023-04-10T13:55:43.707Z,0.80
2023-04-10T13:57:45.401Z,0.90
2023-04-10T13:59:47.060Z,0.85
2023-04-10T14:01:50.983Z,1.00
2023-04-10T14:03:52.810Z,0.80
2023-04-10T14:05:54.629Z,0.80
2023-04-10T14:07:57.005Z,0.90
2023-04-10T14:09:59.457Z,1.00
2023-04-10T14:12:02.062Z,1.00
2023-04-10T14:14:04.248Z,1.58
2023-04-10T14:16:06.498Z,0.70
2023-04-10T14:18:08.305Z,1.20
2023-04-10T14:20:13.401Z,0.95
2023-04-10T14:22:15.101Z,0.90
2023-04-10T14:24:16.837Z,1.10
2023-04-10T14:26:18.536Z,1.30
2023-04-10T14:28:20.382Z,1.00
2023-04-10T14:30:22.060Z,1.30
2023-04-10T14:32:23.882Z,1.23
2023-04-10T14:34:25.744Z,1.10
2023-04-10T14:36:27.955Z,1.20
2023-04-10T14:38:29.655Z,1.05
2023-04-10T14:40:31.459Z,1.23
2023-04-10T14:42:33.239Z,1.10
2023-04-10T14:44:34.898Z,1.10
2023-04-10T14:46:37.484Z,1.38
2023-04-10T14:48:39.752Z,1.10
2023-04-10T14:50:41.452Z,1.40
2023-04-10T14:52:43.100Z,1.38
2023-04-10T14:54:44.950Z,1.20
2023-04-10T14:56:46.651Z,1.10
2023-04-10T14:58:48.341Z,1.20
2023-04-10T15:00:50.989Z,1.20
2023-04-10T15:02:52.957Z,1.10
2023-04-10T15:04:54.692Z,0.90
2023-04-10T15:06:56.323Z,1.33
2023-04-10T15:08:58.145Z,1.50
2023-04-10T15:11:00.386Z,1.25
2023-04-10T15:13:02.065Z,1.10
2023-04-10T15:15:04.010Z,1.20
2023-04-10T15:17:05.763Z,0.90
2023-04-10T15:19:07.666Z,1.35
2023-04-10T15:21:09.384Z,1.40
2023-04-10T15:23:11.610Z,1.23
2023-04-10T15:25:13.397Z,1.10
2023-04-10T15:27:15.117Z,1.13
2023-04-10T15:29:16.817Z,1.10
2023-04-10T15:31:22.364Z,1.30
2023-04-10T15:33:24.179Z,0.90
2023-04-10T15:35:27.936Z,1.27
2023-04-10T15:37:29.676Z,1.20
2023-04-10T15:39:31.415Z,1.30
2023-04-10T15:41:33.308Z,1.20
2023-04-10T15:43:35.384Z,1.50
2023-04-10T15:45:37.572Z,1.00
2023-04-10T15:47:39.207Z,1.02
2023-04-10T15:49:41.434Z,1.17
2023-04-10T15:51:43.070Z,1.48
2023-04-10T15:53:44.915Z,1.35
2023-04-10T15:55:46.612Z,1.40
2023-04-10T15:57:48.249Z,1.10
2023-04-10T15:59:53.859Z,1.38
2023-04-10T16:01:55.753Z,1.30
2023-04-10T16:03:57.767Z,1.73
2023-04-10T16:05:59.768Z,1.38
2023-04-10T16:08:03.129Z,1.17
2023-04-10T16:10:11.427Z,1.20
2023-04-10T16:12:13.378Z,1.60
2023-04-10T16:14:15.145Z,1.35
2023-04-10T16:16:18.857Z,1.30
2023-04-10T16:18:20.776Z,1.33
2023-04-10T16:20:22.526Z,1.25
2023-04-10T16:22:24.241Z,1.35
2023-04-10T16:24:26.752Z,1.38
2023-04-10T16:26:28.611Z,1.20
2023-04-10T16:28:30.360Z,1.30
2023-04-10T16:30:32.057Z,1.25
2023-04-10T16:32:34.086Z,1.20
2023-04-10T16:34:35.763Z,1.10
2023-04-10T16:36:37.623Z,1.30
2023-04-10T16:38:39.270Z,1.27
2023-04-10T16:40:40.907Z,1.50
2023-04-10T16:42:43.007Z,1.42
2023-04-10T16:44:44.713Z,1.75
2023-04-10T16:46:46.524Z,1.50
2023-04-10T16:48:52.094Z,1.42
2023-04-10T16:50:53.798Z,1.58
2023-04-10T16:52:55.589Z,1.55
2023-04-10T16:54:57.261Z,1.70
2023-04-10T16:56:58.923Z,1.63
2023-04-10T16:59:00.764Z,1.13
2023-04-10T17:01:25.909Z,1.60
2023-04-10T17:03:27.922Z,1.60
2023-04-10T17:05:38.976Z,1.40
2023-04-10T17:07:41.429Z,1.65
2023-04-10T17:09:44.803Z,1.30
2023-04-10T17:11:46.523Z,1.38
2023-04-10T17:13:48.196Z,1.50
2023-04-10T17:15:49.873Z,1.77
2023-04-10T17:17:51.715Z,1.20
2023-04-10T17:19:53.545Z,1.40
2023-04-10T17:21:55.175Z,1.60
2023-04-10T17:23:56.902Z,1.50
2023-04-10T17:25:58.585Z,1.15
2023-04-10T17:28:00.221Z,1.60
2023-04-10T17:30:01.933Z,1.33
2023-04-10T17:32:03.679Z,1.20
2023-04-10T17:34:05.443Z,1.33
2023-04-10T17:36:07.890Z,1.67
2023-04-10T17:38:09.640Z,1.55
2023-04-10T17:40:11.879Z,3.13
2023-04-10T17:42:13.521Z,1.90
2023-04-10T17:44:15.494Z,1.45
2023-04-10T17:46:17.202Z,2.03
2023-04-10T17:48:18.958Z,1.77
2023-04-10T17:50:20.777Z,1.38
2023-04-10T17:52:23.986Z,1.20
2023-04-10T17:54:25.682Z,1.55
2023-04-10T17:56:27.350Z,1.60
2023-04-10T17:58:31.900Z,1.77
2023-04-10T18:00:34.306Z,1.73
2023-04-10T18:02:36.090Z,1.50
2023-04-10T18:04:37.751Z,1.58
2023-04-10T18:06:40.958Z,1.50
2023-04-10T18:08:42.716Z,1.20
2023-04-10T18:10:44.401Z,1.50
2023-04-10T18:12:46.046Z,1.75
2023-04-10T18:14:48.711Z,1.95
2023-04-10T18:16:50.407Z,1.60
2023-04-10T18:18:52.440Z,1.70
2023-04-10T18:21:33.119Z,2.20
2023-04-10T18:23:35.400Z,2.90
2023-04-10T18:25:37.022Z,2.47
2023-04-10T18:27:43.563Z,2.10
2023-04-10T18:29:49.680Z,1.60
2023-04-10T18:31:51.524Z,1.33
2023-04-10T18:34:06.472Z,1.30
2023-04-10T18:36:10.866Z,1.50
2023-04-10T18:38:13.237Z,1.10
2023-04-10T18:40:16.663Z,1.33
2023-04-10T18:42:18.765Z,1.25
2023-04-10T18:44:20.426Z,1.30
2023-04-10T18:46:24.656Z,1.30
2023-04-10T18:48:26.414Z,1.20
2023-04-10T18:50:28.208Z,1.70
2023-04-10T18:52:29.912Z,1.40
2023-04-10T18:54:31.746Z,1.60
2023-04-10T18:56:35.743Z,1.30
2023-04-10T18:58:37.737Z,1.30
2023-04-10T19:00:39.381Z,1.17
2023-04-10T19:02:41.197Z,1.33
2023-04-10T19:04:43.045Z,1.55
2023-04-10T19:06:46.310Z,1.15
2023-04-10T19:08:48.005Z,1.50
2023-04-10T19:10:49.672Z,1.50
2023-04-10T19:12:53.278Z,1.35
2023-04-10T19:14:55.010Z,1.50
2023-04-10T19:16:56.998Z,1.42
2023-04-10T19:18:58.781Z,1.60
2023-04-10T19:21:00.534Z,1.25
2023-04-10T19:23:02.267Z,1.30
2023-04-10T19:25:04.202Z,1.40
2023-04-10T19:27:06.564Z,1.60
2023-04-10T19:29:09.082Z,1.83
2023-04-10T19:31:10.998Z,1.30
2023-04-10T19:33:12.713Z,1.58
2023-04-10T19:35:14.437Z,1.55
2023-04-10T19:37:16.287Z,1.50
2023-04-10T19:39:17.936Z,1.17
2023-04-10T19:41:19.649Z,1.20
2023-04-10T19:43:21.327Z,1.38
2023-04-10T19:45:27.259Z,1.25
2023-04-10T19:47:28.964Z,1.65
2023-04-10T19:49:34.420Z,1.42
2023-04-10T19:51:36.121Z,1.13
2023-04-10T19:53:38.227Z,1.30
2023-04-10T19:55:40.915Z,1.48
2023-04-10T19:57:42.558Z,1.70
2023-04-10T19:59:44.277Z,1.42
2023-04-10T20:01:46.040Z,1.60
2023-04-10T20:03:47.835Z,1.52
2023-04-10T20:05:50.699Z,2.10
2023-04-10T20:07:52.417Z,1.73
2023-04-10T20:09:54.102Z,1.60
2023-04-10T20:11:57.198Z,1.42
2023-04-10T20:13:58.966Z,2.13
2023-04-10T20:16:00.949Z,1.52
2023-04-10T20:18:02.732Z,0.95
2023-04-10T20:20:04.724Z,1.27
2023-04-10T20:22:07.418Z,1.20
2023-04-10T20:24:09.061Z,1.30
2023-04-10T20:26:12.049Z,1.60
2023-04-10T20:28:13.760Z,1.52
2023-04-10T20:30:15.701Z,1.40
2023-04-10T20:32:17.337Z,1.00
2023-04-10T20:34:19.031Z,1.30
2023-04-10T20:36:20.950Z,1.73
2023-04-10T20:38:22.739Z,1.30
2023-04-10T20:40:24.457Z,1.10
2023-04-10T20:42:26.137Z,1.88
2023-04-10T20:44:27.806Z,1.42
2023-04-10T20:46:29.920Z,1.90
2023-04-10T20:48:31.703Z,1.05
2023-04-10T20:50:33.405Z,1.60
2023-04-10T20:52:35.101Z,1.63
2023-04-10T20:54:36.745Z,1.88
2023-04-10T20:56:43.537Z,1.85
2023-04-10T20:58:45.723Z,1.50
2023-04-10T21:00:47.433Z,1.33
2023-04-10T21:02:49.222Z,1.17
2023-04-10T21:04:52.223Z,1.30
2023-04-10T21:06:53.960Z,1.90
2023-04-10T21:08:55.962Z,1.52
2023-04-10T21:10:59.516Z,1.27
2023-04-10T21:13:03.794Z,1.45
2023-04-10T21:15:06.041Z,1.48
2023-04-10T21:17:07.690Z,1.90
2023-04-10T21:19:09.587Z,1.55
2023-04-10T21:21:11.250Z,1.95
2023-04-10T21:23:12.923Z,1.65
2023-04-10T21:25:14.583Z,1.83
2023-04-10T21:27:16.276Z,1.88
2023-04-10T21:29:17.943Z,2.42
2023-04-10T21:31:22.733Z,2.33
2023-04-10T21:33:24.406Z,2.45
2023-04-10T21:35:27.137Z,2.08
2023-04-10T21:37:28.830Z,2.00
2023-04-10T21:39:30.600Z,2.00
2023-04-10T21:41:32.203Z,1.88
2023-04-10T21:43:35.301Z,2.13
2023-04-10T21:45:37.640Z,2.08
2023-04-10T21:47:39.479Z,2.00
2023-04-10T21:49:41.322Z,2.58
2023-04-10T21:51:43.046Z,1.60
2023-04-10T21:53:44.722Z,1.90
2023-04-10T21:55:46.344Z,2.30
2023-04-10T21:57:48.078Z,2.40
2023-04-10T21:59:49.773Z,1.88
2023-04-10T22:01:51.505Z,2.58
2023-04-10T22:03:54.296Z,1.73
2023-04-10T22:05:56.102Z,1.85
2023-04-10T22:07:57.762Z,2.00
2023-04-10T22:09:59.413Z,1.58
2023-04-10T22:12:01.106Z,1.75
2023-04-10T22:14:16.148Z,1.67
2023-04-10T22:16:19.909Z,1.88
2023-04-10T22:18:21.685Z,1.50
2023-04-10T22:20:23.340Z,2.03
2023-04-10T22:22:25.012Z,1.67
2023-04-10T22:24:26.776Z,1.55
2023-04-10T22:26:28.513Z,1.70
2023-04-10T22:28:30.298Z,2.38
2023-04-10T22:30:31.968Z,2.08
2023-04-10T22:32:33.873Z,1.90
2023-04-10T22:34:35.792Z,1.77
2023-04-10T22:36:37.547Z,2.10
2023-04-10T22:38:39.249Z,2.08
2023-04-10T22:40:44.028Z,1.75
2023-04-10T22:42:46.177Z,1.73
2023-04-10T22:44:47.897Z,1.95
2023-04-10T22:46:49.577Z,2.33
2023-04-10T22:48:51.389Z,2.00
2023-04-10T22:50:53.053Z,1.90
2023-04-10T22:52:54.732Z,2.75
2023-04-10T22:54:57.470Z,2.38
2023-04-10T22:56:59.124Z,2.20
2023-04-10T22:59:00.824Z,2.13
2023-04-10T23:01:02.525Z,2.25
2023-04-10T23:03:04.452Z,2.35
2023-04-10T23:05:06.713Z,2.80
2023-04-10T23:07:08.419Z,2.22
2023-04-10T23:09:10.109Z,3.00
2023-04-10T23:11:11.809Z,2.53
2023-04-10T23:13:13.470Z,2.72
2023-04-10T23:15:15.245Z,2.55
2023-04-10T23:17:16.870Z,2.33
2023-04-10T23:19:18.836Z,2.88
2023-04-10T23:21:20.927Z,2.13
2023-04-10T23:23:22.813Z,2.35
2023-04-10T23:25:24.644Z,2.08
2023-04-10T23:27:26.508Z,2.25
2023-04-10T23:29:28.218Z,1.60
2023-04-10T23:31:29.971Z,1.90
2023-04-10T23:33:31.657Z,1.80
2023-04-10T23:35:33.401Z,1.58
2023-04-10T23:37:35.394Z,1.50
2023-04-10T23:39:37.254Z,1.40
2023-04-10T23:41:38.890Z,1.40
2023-04-10T23:43:40.637Z,1.20
2023-04-10T23:45:42.436Z,0.95
2023-04-10T23:47:44.129Z,0.93
2023-04-10T23:49:45.865Z,1.30
2023-04-10T23:51:47.545Z,1.15
2023-04-10T23:53:49.225Z,0.82
2023-04-10T23:55:50.880Z,0.93
2023-04-10T23:57:52.551Z,1.02
2023-04-10T23:59:54.295Z,1.00
